sensor_id;sensor_type;location;lat;lon;timestamp;P1;durP1;ratioP1;P2;durP2;ratioP2
83690;SDS011;73671;43.220;0.064;2024-03-08T00:00:00;10.55;;;5.32;;
83690;SDS011;73671;43.220;0.064;2024-03-08T00:05:00;12.73;;;4.90;;
83690;SDS011;73671;43.220;0.064;2024-03-08T00:07:25;8.30;;;4.80;;
83690;SDS011;73671;43.220;0.064;2024-03-08T00:09:52;9.23;;;4.90;;
83690;SDS011;73671;43.220;0.064;2024-03-08T00:12:18;11.80;;;4.97;;
83690;SDS011;73671;43.220;0.064;2024-03-08T00:14:43;8.70;;;5.13;;
83690;SDS011;73671;43.220;0.064;2024-03-08T00:17:09;10.35;;;4.88;;
83690;SDS011;73671;43.220;0.064;2024-03-08T00:19:35;9.85;;;5.03;;
83690;SDS011;73671;43.220;0.064;2024-03-08T00:22:01;9.68;;;5.00;;
83690;SDS011;73671;43.220;0.064;2024-03-08T00:24:27;8.77;;;5.18;;
83690;SDS011;73671;43.220;0.064;2024-03-08T00:26:54;11.40;;;5.03;;
83690;SDS011;73671;43.220;0.064;2024-03-08T00:29:20;8.30;;;4.93;;
83690;SDS011;73671;43.220;0.064;2024-03-08T00:31:47;10.73;;;4.65;;
83690;SDS011;73671;43.220;0.064;2024-03-08T00:34:12;10.55;;;4.60;;
83690;SDS011;73671;43.220;0.064;2024-03-08T00:36:38;8.88;;;4.30;;
83690;SDS011;73671;43.220;0.064;2024-03-08T00:39:04;11.73;;;4.93;;
83690;SDS011;73671;43.220;0.064;2024-03-08T00:41:31;9.98;;;4.53;;
83690;SDS011;73671;43.220;0.064;2024-03-08T00:43:57;8.35;;;4.40;;
83690;SDS011;73671;43.220;0.064;2024-03-08T00:46:23;6.82;;;4.10;;
83690;SDS011;73671;43.220;0.064;2024-03-08T00:48:48;6.00;;;4.03;;
83690;SDS011;73671;43.220;0.064;2024-03-08T00:51:14;8.95;;;4.65;;
83690;SDS011;73671;43.220;0.064;2024-03-08T00:53:41;5.63;;;3.85;;
83690;SDS011;73671;43.220;0.064;2024-03-08T00:56:07;7.88;;;4.00;;
83690;SDS011;73671;43.220;0.064;2024-03-08T00:58:38;7.07;;;3.65;;
83690;SDS011;73671;43.220;0.064;2024-03-08T01:01:03;5.68;;;3.22;;
83690;SDS011;73671;43.220;0.064;2024-03-08T01:03:30;9.32;;;3.72;;
83690;SDS011;73671;43.220;0.064;2024-03-08T01:05:59;7.90;;;4.18;;
83690;SDS011;73671;43.220;0.064;2024-03-08T01:08:26;5.72;;;3.38;;
83690;SDS011;73671;43.220;0.064;2024-03-08T01:10:52;7.55;;;3.75;;
83690;SDS011;73671;43.220;0.064;2024-03-08T01:13:18;6.88;;;3.85;;
83690;SDS011;73671;43.220;0.064;2024-03-08T01:15:44;8.00;;;3.35;;
83690;SDS011;73671;43.220;0.064;2024-03-08T01:18:10;6.43;;;3.35;;
83690;SDS011;73671;43.220;0.064;2024-03-08T01:20:35;8.02;;;3.95;;
83690;SDS011;73671;43.220;0.064;2024-03-08T01:23:01;8.77;;;3.60;;
83690;SDS011;73671;43.220;0.064;2024-03-08T01:25:26;10.15;;;4.38;;
83690;SDS011;73671;43.220;0.064;2024-03-08T01:41:19;10.65;;;5.18;;
83690;SDS011;73671;43.220;0.064;2024-03-08T01:43:44;7.45;;;4.03;;
83690;SDS011;73671;43.220;0.064;2024-03-08T01:46:10;7.43;;;4.47;;
83690;SDS011;73671;43.220;0.064;2024-03-08T01:48:40;9.00;;;4.72;;
83690;SDS011;73671;43.220;0.064;2024-03-08T01:51:06;9.88;;;4.60;;
83690;SDS011;73671;43.220;0.064;2024-03-08T01:53:32;10.98;;;4.25;;
83690;SDS011;73671;43.220;0.064;2024-03-08T01:55:59;8.82;;;4.18;;
83690;SDS011;73671;43.220;0.064;2024-03-08T01:58:29;14.77;;;4.07;;
83690;SDS011;73671;43.220;0.064;2024-03-08T02:00:56;4.75;;;3.97;;
83690;SDS011;73671;43.220;0.064;2024-03-08T02:03:22;6.25;;;3.83;;
83690;SDS011;73671;43.220;0.064;2024-03-08T02:05:48;7.63;;;4.20;;
83690;SDS011;73671;43.220;0.064;2024-03-08T02:08:13;12.98;;;3.72;;
83690;SDS011;73671;43.220;0.064;2024-03-08T02:10:43;5.03;;;3.70;;
83690;SDS011;73671;43.220;0.064;2024-03-08T02:13:10;5.82;;;3.97;;
83690;SDS011;73671;43.220;0.064;2024-03-08T02:15:52;7.63;;;4.10;;
83690;SDS011;73671;43.220;0.064;2024-03-08T02:18:19;7.22;;;4.45;;
83690;SDS011;73671;43.220;0.064;2024-03-08T02:20:49;10.05;;;4.50;;
83690;SDS011;73671;43.220;0.064;2024-03-08T02:23:16;8.32;;;4.45;;
83690;SDS011;73671;43.220;0.064;2024-03-08T02:25:42;8.25;;;4.43;;
83690;SDS011;73671;43.220;0.064;2024-03-08T02:28:10;8.60;;;5.00;;
83690;SDS011;73671;43.220;0.064;2024-03-08T02:30:37;6.78;;;4.20;;
83690;SDS011;73671;43.220;0.064;2024-03-08T02:33:03;10.70;;;5.03;;
83690;SDS011;73671;43.220;0.064;2024-03-08T02:35:29;7.28;;;4.68;;
83690;SDS011;73671;43.220;0.064;2024-03-08T02:37:55;10.82;;;4.68;;
83690;SDS011;73671;43.220;0.064;2024-03-08T02:40:20;7.07;;;4.60;;
83690;SDS011;73671;43.220;0.064;2024-03-08T02:42:47;7.45;;;5.20;;
83690;SDS011;73671;43.220;0.064;2024-03-08T02:45:12;8.63;;;4.72;;
83690;SDS011;73671;43.220;0.064;2024-03-08T02:47:38;8.80;;;4.72;;
83690;SDS011;73671;43.220;0.064;2024-03-08T02:50:04;12.90;;;6.13;;
83690;SDS011;73671;43.220;0.064;2024-03-08T02:52:33;7.53;;;4.35;;
83690;SDS011;73671;43.220;0.064;2024-03-08T02:54:59;10.77;;;4.55;;
83690;SDS011;73671;43.220;0.064;2024-03-08T02:57:24;10.98;;;4.30;;
83690;SDS011;73671;43.220;0.064;2024-03-08T02:59:49;9.55;;;4.40;;
83690;SDS011;73671;43.220;0.064;2024-03-08T03:02:15;6.72;;;4.18;;
83690;SDS011;73671;43.220;0.064;2024-03-08T03:04:41;9.50;;;4.10;;
83690;SDS011;73671;43.220;0.064;2024-03-08T03:07:07;6.70;;;4.25;;
83690;SDS011;73671;43.220;0.064;2024-03-08T03:09:32;8.65;;;4.05;;
83690;SDS011;73671;43.220;0.064;2024-03-08T03:11:58;12.75;;;4.00;;
83690;SDS011;73671;43.220;0.064;2024-03-08T03:14:24;10.48;;;4.00;;
83690;SDS011;73671;43.220;0.064;2024-03-08T03:16:51;7.15;;;3.80;;
83690;SDS011;73671;43.220;0.064;2024-03-08T03:19:17;6.88;;;3.75;;
83690;SDS011;73671;43.220;0.064;2024-03-08T03:21:42;11.02;;;4.25;;
83690;SDS011;73671;43.220;0.064;2024-03-08T03:24:08;9.13;;;3.72;;
83690;SDS011;73671;43.220;0.064;2024-03-08T03:26:37;5.78;;;3.55;;
83690;SDS011;73671;43.220;0.064;2024-03-08T03:29:07;5.32;;;3.33;;
83690;SDS011;73671;43.220;0.064;2024-03-08T03:31:34;8.27;;;3.70;;
83690;SDS011;73671;43.220;0.064;2024-03-08T03:34:01;6.40;;;3.70;;
83690;SDS011;73671;43.220;0.064;2024-03-08T03:36:32;10.57;;;3.40;;
83690;SDS011;73671;43.220;0.064;2024-03-08T03:38:58;9.00;;;4.00;;
83690;SDS011;73671;43.220;0.064;2024-03-08T03:41:35;8.30;;;3.88;;
83690;SDS011;73671;43.220;0.064;2024-03-08T03:44:00;6.65;;;4.00;;
83690;SDS011;73671;43.220;0.064;2024-03-08T03:46:25;9.07;;;3.95;;
83690;SDS011;73671;43.220;0.064;2024-03-08T03:48:52;7.75;;;3.60;;
83690;SDS011;73671;43.220;0.064;2024-03-08T03:51:18;5.20;;;3.72;;
83690;SDS011;73671;43.220;0.064;2024-03-08T03:53:44;11.98;;;4.70;;
83690;SDS011;73671;43.220;0.064;2024-03-08T03:56:09;7.60;;;3.95;;
83690;SDS011;73671;43.220;0.064;2024-03-08T03:58:35;9.48;;;4.18;;
83690;SDS011;73671;43.220;0.064;2024-03-08T04:01:01;7.30;;;4.63;;
83690;SDS011;73671;43.220;0.064;2024-03-08T04:03:29;6.50;;;4.10;;
83690;SDS011;73671;43.220;0.064;2024-03-08T04:05:54;9.13;;;3.97;;
83690;SDS011;73671;43.220;0.064;2024-03-08T04:08:20;8.05;;;3.92;;
83690;SDS011;73671;43.220;0.064;2024-03-08T04:10:45;8.65;;;4.25;;
83690;SDS011;73671;43.220;0.064;2024-03-08T04:13:11;9.48;;;3.55;;
83690;SDS011;73671;43.220;0.064;2024-03-08T04:15:36;6.60;;;4.00;;
83690;SDS011;73671;43.220;0.064;2024-03-08T04:18:03;11.57;;;4.85;;
83690;SDS011;73671;43.220;0.064;2024-03-08T04:20:28;9.23;;;3.83;;
83690;SDS011;73671;43.220;0.064;2024-03-08T04:22:55;8.82;;;4.18;;
83690;SDS011;73671;43.220;0.064;2024-03-08T04:25:21;8.45;;;3.28;;
83690;SDS011;73671;43.220;0.064;2024-03-08T04:27:46;7.13;;;3.47;;
83690;SDS011;73671;43.220;0.064;2024-03-08T04:30:13;8.45;;;3.80;;
83690;SDS011;73671;43.220;0.064;2024-03-08T04:32:39;8.15;;;3.95;;
83690;SDS011;73671;43.220;0.064;2024-03-08T04:35:06;6.05;;;3.35;;
83690;SDS011;73671;43.220;0.064;2024-03-08T04:37:33;7.70;;;3.45;;
83690;SDS011;73671;43.220;0.064;2024-03-08T04:39:59;4.18;;;3.15;;
83690;SDS011;73671;43.220;0.064;2024-03-08T04:42:24;7.15;;;4.35;;
83690;SDS011;73671;43.220;0.064;2024-03-08T04:44:51;7.20;;;3.25;;
83690;SDS011;73671;43.220;0.064;2024-03-08T04:47:18;8.57;;;3.70;;
83690;SDS011;73671;43.220;0.064;2024-03-08T04:49:44;4.93;;;3.13;;
83690;SDS011;73671;43.220;0.064;2024-03-08T04:52:09;7.10;;;3.60;;
83690;SDS011;73671;43.220;0.064;2024-03-08T04:54:35;5.85;;;3.40;;
83690;SDS011;73671;43.220;0.064;2024-03-08T04:57:00;4.50;;;3.33;;
83690;SDS011;73671;43.220;0.064;2024-03-08T04:59:26;5.75;;;3.30;;
83690;SDS011;73671;43.220;0.064;2024-03-08T05:01:52;4.90;;;3.28;;
83690;SDS011;73671;43.220;0.064;2024-03-08T05:04:18;8.63;;;3.15;;
83690;SDS011;73671;43.220;0.064;2024-03-08T05:06:43;6.65;;;3.90;;
83690;SDS011;73671;43.220;0.064;2024-03-08T05:09:08;9.57;;;4.03;;
83690;SDS011;73671;43.220;0.064;2024-03-08T05:11:43;7.00;;;4.00;;
83690;SDS011;73671;43.220;0.064;2024-03-08T05:14:10;5.55;;;3.97;;
83690;SDS011;73671;43.220;0.064;2024-03-08T05:16:36;5.70;;;3.80;;
83690;SDS011;73671;43.220;0.064;2024-03-08T05:19:02;4.47;;;3.35;;
83690;SDS011;73671;43.220;0.064;2024-03-08T05:21:28;5.85;;;3.50;;
83690;SDS011;73671;43.220;0.064;2024-03-08T05:23:54;5.70;;;3.45;;
83690;SDS011;73671;43.220;0.064;2024-03-08T05:26:19;5.28;;;3.63;;
83690;SDS011;73671;43.220;0.064;2024-03-08T05:28:45;7.50;;;3.20;;
83690;SDS011;73671;43.220;0.064;2024-03-08T05:31:17;4.20;;;2.92;;
83690;SDS011;73671;43.220;0.064;2024-03-08T05:33:49;6.30;;;3.30;;
83690;SDS011;73671;43.220;0.064;2024-03-08T05:36:15;6.18;;;3.67;;
83690;SDS011;73671;43.220;0.064;2024-03-08T05:38:42;6.78;;;4.03;;
83690;SDS011;73671;43.220;0.064;2024-03-08T05:41:08;5.60;;;3.40;;
83690;SDS011;73671;43.220;0.064;2024-03-08T05:43:34;9.65;;;4.45;;
83690;SDS011;73671;43.220;0.064;2024-03-08T05:46:00;7.85;;;4.13;;
83690;SDS011;73671;43.220;0.064;2024-03-08T05:48:25;6.75;;;4.57;;
83690;SDS011;73671;43.220;0.064;2024-03-08T05:50:50;5.90;;;3.67;;
83690;SDS011;73671;43.220;0.064;2024-03-08T05:53:16;9.02;;;3.80;;
83690;SDS011;73671;43.220;0.064;2024-03-08T05:55:41;9.63;;;3.58;;
83690;SDS011;73671;43.220;0.064;2024-03-08T05:58:07;7.55;;;3.72;;
83690;SDS011;73671;43.220;0.064;2024-03-08T06:00:33;4.70;;;3.17;;
83690;SDS011;73671;43.220;0.064;2024-03-08T06:02:59;6.68;;;3.42;;
83690;SDS011;73671;43.220;0.064;2024-03-08T06:05:25;4.50;;;2.95;;
83690;SDS011;73671;43.220;0.064;2024-03-08T06:07:50;8.00;;;3.30;;
83690;SDS011;73671;43.220;0.064;2024-03-08T06:10:18;5.50;;;3.42;;
83690;SDS011;73671;43.220;0.064;2024-03-08T06:12:44;4.28;;;3.08;;
83690;SDS011;73671;43.220;0.064;2024-03-08T06:15:10;4.50;;;2.70;;
83690;SDS011;73671;43.220;0.064;2024-03-08T06:17:39;6.50;;;3.33;;
83690;SDS011;73671;43.220;0.064;2024-03-08T06:20:05;6.05;;;2.75;;
83690;SDS011;73671;43.220;0.064;2024-03-08T06:22:37;4.20;;;3.00;;
83690;SDS011;73671;43.220;0.064;2024-03-08T06:25:05;4.68;;;3.05;;
83690;SDS011;73671;43.220;0.064;2024-03-08T06:27:31;8.07;;;3.22;;
83690;SDS011;73671;43.220;0.064;2024-03-08T06:29:59;5.68;;;3.13;;
83690;SDS011;73671;43.220;0.064;2024-03-08T06:32:24;7.50;;;3.30;;
83690;SDS011;73671;43.220;0.064;2024-03-08T06:34:50;7.80;;;3.33;;
83690;SDS011;73671;43.220;0.064;2024-03-08T06:37:16;5.55;;;3.70;;
83690;SDS011;73671;43.220;0.064;2024-03-08T06:39:46;8.50;;;3.33;;
83690;SDS011;73671;43.220;0.064;2024-03-08T06:42:16;6.88;;;3.47;;
83690;SDS011;73671;43.220;0.064;2024-03-08T06:44:42;5.68;;;3.22;;
83690;SDS011;73671;43.220;0.064;2024-03-08T06:47:14;6.20;;;3.33;;
83690;SDS011;73671;43.220;0.064;2024-03-08T06:49:40;9.20;;;3.30;;
83690;SDS011;73671;43.220;0.064;2024-03-08T06:52:06;7.55;;;3.03;;
83690;SDS011;73671;43.220;0.064;2024-03-08T06:54:34;5.10;;;3.67;;
83690;SDS011;73671;43.220;0.064;2024-03-08T06:57:01;6.82;;;3.80;;
83690;SDS011;73671;43.220;0.064;2024-03-08T06:59:28;7.35;;;3.80;;
83690;SDS011;73671;43.220;0.064;2024-03-08T07:01:53;5.72;;;3.10;;
83690;SDS011;73671;43.220;0.064;2024-03-08T07:04:19;5.78;;;2.83;;
83690;SDS011;73671;43.220;0.064;2024-03-08T07:06:46;7.43;;;4.25;;
83690;SDS011;73671;43.220;0.064;2024-03-08T07:09:15;6.10;;;3.15;;
83690;SDS011;73671;43.220;0.064;2024-03-08T07:11:42;4.63;;;3.30;;
83690;SDS011;73671;43.220;0.064;2024-03-08T07:14:07;7.35;;;3.45;;
83690;SDS011;73671;43.220;0.064;2024-03-08T07:16:33;5.97;;;3.30;;
83690;SDS011;73671;43.220;0.064;2024-03-08T07:19:00;6.93;;;3.75;;
83690;SDS011;73671;43.220;0.064;2024-03-08T07:21:26;6.25;;;3.83;;
83690;SDS011;73671;43.220;0.064;2024-03-08T07:23:52;12.90;;;4.10;;
83690;SDS011;73671;43.220;0.064;2024-03-08T07:26:26;5.95;;;4.18;;
83690;SDS011;73671;43.220;0.064;2024-03-08T07:28:52;5.63;;;3.90;;
83690;SDS011;73671;43.220;0.064;2024-03-08T07:31:19;9.85;;;4.20;;
83690;SDS011;73671;43.220;0.064;2024-03-08T07:33:50;8.05;;;5.20;;
83690;SDS011;73671;43.220;0.064;2024-03-08T07:36:16;11.07;;;5.28;;
83690;SDS011;73671;43.220;0.064;2024-03-08T07:38:41;10.35;;;4.57;;
83690;SDS011;73671;43.220;0.064;2024-03-08T07:41:07;11.13;;;5.43;;
83690;SDS011;73671;43.220;0.064;2024-03-08T07:43:32;6.78;;;4.82;;
83690;SDS011;73671;43.220;0.064;2024-03-08T07:45:58;8.32;;;4.05;;
83690;SDS011;73671;43.220;0.064;2024-03-08T07:48:23;7.32;;;4.50;;
83690;SDS011;73671;43.220;0.064;2024-03-08T07:50:48;11.75;;;5.78;;
83690;SDS011;73671;43.220;0.064;2024-03-08T07:53:15;13.07;;;6.05;;
83690;SDS011;73671;43.220;0.064;2024-03-08T07:55:40;9.63;;;5.43;;
83690;SDS011;73671;43.220;0.064;2024-03-08T07:58:07;5.60;;;4.40;;
83690;SDS011;73671;43.220;0.064;2024-03-08T08:00:35;8.30;;;4.50;;
83690;SDS011;73671;43.220;0.064;2024-03-08T08:03:01;7.15;;;4.35;;
83690;SDS011;73671;43.220;0.064;2024-03-08T08:05:27;6.18;;;4.18;;
83690;SDS011;73671;43.220;0.064;2024-03-08T08:07:53;7.45;;;4.20;;
83690;SDS011;73671;43.220;0.064;2024-03-08T08:10:18;7.15;;;4.40;;
83690;SDS011;73671;43.220;0.064;2024-03-08T08:12:49;7.20;;;4.45;;
83690;SDS011;73671;43.220;0.064;2024-03-08T08:15:15;15.88;;;6.28;;
83690;SDS011;73671;43.220;0.064;2024-03-08T08:17:44;16.40;;;7.35;;
83690;SDS011;73671;43.220;0.064;2024-03-08T08:20:10;20.75;;;7.32;;
83690;SDS011;73671;43.220;0.064;2024-03-08T08:22:38;19.60;;;7.72;;
83690;SDS011;73671;43.220;0.064;2024-03-08T08:25:05;13.73;;;6.50;;
83690;SDS011;73671;43.220;0.064;2024-03-08T08:27:30;13.00;;;5.78;;
83690;SDS011;73671;43.220;0.064;2024-03-08T08:29:56;13.02;;;6.32;;
83690;SDS011;73671;43.220;0.064;2024-03-08T08:32:21;11.85;;;5.68;;
83690;SDS011;73671;43.220;0.064;2024-03-08T08:34:47;11.13;;;5.32;;
83690;SDS011;73671;43.220;0.064;2024-03-08T08:37:13;8.45;;;4.90;;
83690;SDS011;73671;43.220;0.064;2024-03-08T08:39:38;9.00;;;4.57;;
83690;SDS011;73671;43.220;0.064;2024-03-08T08:42:04;8.45;;;4.70;;
83690;SDS011;73671;43.220;0.064;2024-03-08T08:44:29;6.57;;;4.50;;
83690;SDS011;73671;43.220;0.064;2024-03-08T08:46:56;9.02;;;5.13;;
83690;SDS011;73671;43.220;0.064;2024-03-08T08:49:22;9.35;;;4.93;;
83690;SDS011;73671;43.220;0.064;2024-03-08T08:51:52;9.80;;;5.43;;
83690;SDS011;73671;43.220;0.064;2024-03-08T08:54:18;9.88;;;4.95;;
83690;SDS011;73671;43.220;0.064;2024-03-08T08:56:44;10.77;;;5.00;;
83690;SDS011;73671;43.220;0.064;2024-03-08T08:59:09;6.65;;;4.22;;
83690;SDS011;73671;43.220;0.064;2024-03-08T09:01:38;5.80;;;4.05;;
83690;SDS011;73671;43.220;0.064;2024-03-08T09:04:04;7.05;;;4.05;;
83690;SDS011;73671;43.220;0.064;2024-03-08T09:06:30;7.57;;;4.20;;
83690;SDS011;73671;43.220;0.064;2024-03-08T09:08:56;7.90;;;4.38;;
83690;SDS011;73671;43.220;0.064;2024-03-08T09:11:21;9.95;;;5.25;;
83690;SDS011;73671;43.220;0.064;2024-03-08T09:13:46;12.95;;;5.40;;
83690;SDS011;73671;43.220;0.064;2024-03-08T09:16:12;9.32;;;4.72;;
83690;SDS011;73671;43.220;0.064;2024-03-08T09:18:38;8.70;;;4.78;;
83690;SDS011;73671;43.220;0.064;2024-03-08T09:21:03;5.35;;;4.07;;
83690;SDS011;73671;43.220;0.064;2024-03-08T09:23:30;7.95;;;4.32;;
83690;SDS011;73671;43.220;0.064;2024-03-08T09:25:56;8.23;;;4.63;;
83690;SDS011;73671;43.220;0.064;2024-03-08T09:28:25;9.30;;;4.38;;
83690;SDS011;73671;43.220;0.064;2024-03-08T09:30:52;5.70;;;4.35;;
83690;SDS011;73671;43.220;0.064;2024-03-08T09:33:17;7.40;;;4.10;;
83690;SDS011;73671;43.220;0.064;2024-03-08T09:35:47;7.22;;;4.00;;
83690;SDS011;73671;43.220;0.064;2024-03-08T09:38:13;9.15;;;3.90;;
83690;SDS011;73671;43.220;0.064;2024-03-08T09:40:42;5.88;;;3.25;;
83690;SDS011;73671;43.220;0.064;2024-03-08T09:43:09;7.38;;;3.85;;
83690;SDS011;73671;43.220;0.064;2024-03-08T09:45:36;8.43;;;4.30;;
83690;SDS011;73671;43.220;0.064;2024-03-08T09:48:15;7.95;;;4.53;;
83690;SDS011;73671;43.220;0.064;2024-03-08T09:50:42;7.22;;;4.22;;
83690;SDS011;73671;43.220;0.064;2024-03-08T09:53:07;6.53;;;3.58;;
83690;SDS011;73671;43.220;0.064;2024-03-08T09:55:37;7.85;;;3.45;;
83690;SDS011;73671;43.220;0.064;2024-03-08T09:58:07;6.50;;;3.30;;
83690;SDS011;73671;43.220;0.064;2024-03-08T10:00:42;5.68;;;3.25;;
83690;SDS011;73671;43.220;0.064;2024-03-08T10:03:08;9.32;;;3.17;;
83690;SDS011;73671;43.220;0.064;2024-03-08T10:05:34;5.15;;;3.00;;
83690;SDS011;73671;43.220;0.064;2024-03-08T10:07:59;6.03;;;2.78;;
83690;SDS011;73671;43.220;0.064;2024-03-08T10:10:25;6.38;;;3.00;;
83690;SDS011;73671;43.220;0.064;2024-03-08T10:12:51;6.47;;;2.97;;
83690;SDS011;73671;43.220;0.064;2024-03-08T10:15:17;5.15;;;3.00;;
83690;SDS011;73671;43.220;0.064;2024-03-08T10:17:42;6.28;;;3.10;;
83690;SDS011;73671;43.220;0.064;2024-03-08T10:20:15;6.03;;;2.90;;
83690;SDS011;73671;43.220;0.064;2024-03-08T10:22:41;9.18;;;3.28;;
83690;SDS011;73671;43.220;0.064;2024-03-08T10:25:10;5.03;;;3.05;;
83690;SDS011;73671;43.220;0.064;2024-03-08T10:27:38;8.27;;;3.80;;
83690;SDS011;73671;43.220;0.064;2024-03-08T10:30:05;6.43;;;2.92;;
83690;SDS011;73671;43.220;0.064;2024-03-08T10:32:35;6.70;;;3.05;;
83690;SDS011;73671;43.220;0.064;2024-03-08T10:35:00;4.57;;;2.67;;
83690;SDS011;73671;43.220;0.064;2024-03-08T10:37:26;5.47;;;2.67;;
83690;SDS011;73671;43.220;0.064;2024-03-08T10:40:02;6.68;;;2.72;;
83690;SDS011;73671;43.220;0.064;2024-03-08T10:42:41;7.13;;;2.60;;
83690;SDS011;73671;43.220;0.064;2024-03-08T10:45:50;4.90;;;2.38;;
83690;SDS011;73671;43.220;0.064;2024-03-08T10:48:28;3.75;;;2.20;;
83690;SDS011;73671;43.220;0.064;2024-03-08T10:51:04;4.93;;;2.30;;
83690;SDS011;73671;43.220;0.064;2024-03-08T10:53:30;4.97;;;2.60;;
83690;SDS011;73671;43.220;0.064;2024-03-08T10:55:58;3.97;;;2.33;;
83690;SDS011;73671;43.220;0.064;2024-03-08T10:58:25;2.75;;;1.98;;
83690;SDS011;73671;43.220;0.064;2024-03-08T11:00:55;5.13;;;2.38;;
83690;SDS011;73671;43.220;0.064;2024-03-08T11:06:08;2.90;;;1.70;;
83690;SDS011;73671;43.220;0.064;2024-03-08T11:08:53;4.03;;;2.03;;
83690;SDS011;73671;43.220;0.064;2024-03-08T11:11:29;3.67;;;2.30;;
83690;SDS011;73671;43.220;0.064;2024-03-08T11:13:56;3.78;;;2.58;;
83690;SDS011;73671;43.220;0.064;2024-03-08T11:18:54;3.72;;;2.70;;
83690;SDS011;73671;43.220;0.064;2024-03-08T11:21:25;7.45;;;2.70;;
83690;SDS011;73671;43.220;0.064;2024-03-08T11:24:07;5.18;;;2.53;;
83690;SDS011;73671;43.220;0.064;2024-03-08T11:26:36;4.93;;;2.30;;
83690;SDS011;73671;43.220;0.064;2024-03-08T11:31:52;6.30;;;1.80;;
83690;SDS011;73671;43.220;0.064;2024-03-08T11:34:19;4.47;;;2.25;;
83690;SDS011;73671;43.220;0.064;2024-03-08T11:36:44;3.50;;;2.20;;
83690;SDS011;73671;43.220;0.064;2024-03-08T11:39:13;2.17;;;1.65;;
83690;SDS011;73671;43.220;0.064;2024-03-08T11:41:39;2.72;;;1.35;;
83690;SDS011;73671;43.220;0.064;2024-03-08T11:44:07;3.38;;;1.40;;
83690;SDS011;73671;43.220;0.064;2024-03-08T11:46:33;2.08;;;1.25;;
83690;SDS011;73671;43.220;0.064;2024-03-08T11:48:59;1.88;;;1.27;;
83690;SDS011;73671;43.220;0.064;2024-03-08T11:51:25;1.85;;;1.30;;
83690;SDS011;73671;43.220;0.064;2024-03-08T11:53:51;3.13;;;1.38;;
83690;SDS011;73671;43.220;0.064;2024-03-08T11:56:17;2.10;;;1.55;;
83690;SDS011;73671;43.220;0.064;2024-03-08T11:58:52;2.65;;;1.00;;
83690;SDS011;73671;43.220;0.064;2024-03-08T12:01:22;2.40;;;1.08;;
83690;SDS011;73671;43.220;0.064;2024-03-08T12:03:54;2.33;;;1.02;;
83690;SDS011;73671;43.220;0.064;2024-03-08T12:06:23;2.97;;;1.23;;
83690;SDS011;73671;43.220;0.064;2024-03-08T12:08:49;1.50;;;0.95;;
83690;SDS011;73671;43.220;0.064;2024-03-08T12:11:16;3.05;;;1.27;;
83690;SDS011;73671;43.220;0.064;2024-03-08T12:13:44;3.70;;;1.40;;
83690;SDS011;73671;43.220;0.064;2024-03-08T12:16:11;2.22;;;1.42;;
83690;SDS011;73671;43.220;0.064;2024-03-08T12:18:38;3.63;;;1.50;;
83690;SDS011;73671;43.220;0.064;2024-03-08T12:21:06;4.28;;;1.50;;
83690;SDS011;73671;43.220;0.064;2024-03-08T12:23:38;1.27;;;1.10;;
83690;SDS011;73671;43.220;0.064;2024-03-08T12:26:14;3.63;;;1.10;;
83690;SDS011;73671;43.220;0.064;2024-03-08T12:28:41;2.53;;;1.20;;
83690;SDS011;73671;43.220;0.064;2024-03-08T12:31:09;3.90;;;1.20;;
83690;SDS011;73671;43.220;0.064;2024-03-08T12:33:48;1.50;;;1.10;;
83690;SDS011;73671;43.220;0.064;2024-03-08T12:36:18;2.22;;;1.13;;
83690;SDS011;73671;43.220;0.064;2024-03-08T12:38:47;2.65;;;1.20;;
83690;SDS011;73671;43.220;0.064;2024-03-08T12:41:14;1.55;;;0.80;;
83690;SDS011;73671;43.220;0.064;2024-03-08T12:43:40;2.45;;;1.13;;
83690;SDS011;73671;43.220;0.064;2024-03-08T12:46:06;2.03;;;0.95;;
83690;SDS011;73671;43.220;0.064;2024-03-08T12:48:36;1.08;;;0.98;;
83690;SDS011;73671;43.220;0.064;2024-03-08T12:51:05;1.75;;;0.90;;
83690;SDS011;73671;43.220;0.064;2024-03-08T12:53:32;0.98;;;0.80;;
83690;SDS011;73671;43.220;0.064;2024-03-08T12:55:58;1.95;;;0.75;;
83690;SDS011;73671;43.220;0.064;2024-03-08T12:58:24;2.90;;;1.00;;
83690;SDS011;73671;43.220;0.064;2024-03-08T13:00:51;2.83;;;0.88;;
83690;SDS011;73671;43.220;0.064;2024-03-08T13:03:16;1.02;;;0.85;;
83690;SDS011;73671;43.220;0.064;2024-03-08T13:05:42;2.05;;;1.02;;
83690;SDS011;73671;43.220;0.064;2024-03-08T13:08:07;0.80;;;0.70;;
83690;SDS011;73671;43.220;0.064;2024-03-08T13:10:40;1.65;;;1.00;;
83690;SDS011;73671;43.220;0.064;2024-03-08T13:13:11;4.75;;;0.80;;
83690;SDS011;73671;43.220;0.064;2024-03-08T13:15:37;0.68;;;0.68;;
83690;SDS011;73671;43.220;0.064;2024-03-08T13:18:02;1.40;;;0.70;;
83690;SDS011;73671;43.220;0.064;2024-03-08T13:20:28;1.92;;;0.90;;
83690;SDS011;73671;43.220;0.064;2024-03-08T13:22:54;1.65;;;0.80;;
83690;SDS011;73671;43.220;0.064;2024-03-08T13:25:20;2.95;;;1.00;;
83690;SDS011;73671;43.220;0.064;2024-03-08T13:27:46;0.85;;;0.82;;
83690;SDS011;73671;43.220;0.064;2024-03-08T13:30:12;1.40;;;1.17;;
83690;SDS011;73671;43.220;0.064;2024-03-08T13:32:39;1.42;;;0.80;;
83690;SDS011;73671;43.220;0.064;2024-03-08T13:35:08;1.02;;;0.93;;
83690;SDS011;73671;43.220;0.064;2024-03-08T13:37:41;1.20;;;0.80;;
83690;SDS011;73671;43.220;0.064;2024-03-08T13:40:07;1.50;;;0.80;;
83690;SDS011;73671;43.220;0.064;2024-03-08T13:42:38;1.60;;;1.05;;
83690;SDS011;73671;43.220;0.064;2024-03-08T13:45:08;1.92;;;0.98;;
83690;SDS011;73671;43.220;0.064;2024-03-08T13:47:37;1.35;;;1.10;;
83690;SDS011;73671;43.220;0.064;2024-03-08T13:50:05;1.35;;;0.90;;
83690;SDS011;73671;43.220;0.064;2024-03-08T13:52:32;1.60;;;1.00;;
83690;SDS011;73671;43.220;0.064;2024-03-08T13:54:59;2.65;;;1.25;;
83690;SDS011;73671;43.220;0.064;2024-03-08T13:57:25;0.85;;;0.82;;
83690;SDS011;73671;43.220;0.064;2024-03-08T13:59:52;3.35;;;0.98;;
83690;SDS011;73671;43.220;0.064;2024-03-08T14:02:17;3.15;;;0.90;;
83690;SDS011;73671;43.220;0.064;2024-03-08T14:04:43;1.52;;;0.82;;
83690;SDS011;73671;43.220;0.064;2024-03-08T14:07:08;2.72;;;1.23;;
83690;SDS011;73671;43.220;0.064;2024-03-08T14:09:36;1.00;;;0.90;;
83690;SDS011;73671;43.220;0.064;2024-03-08T14:12:08;1.38;;;0.90;;
83690;SDS011;73671;43.220;0.064;2024-03-08T14:14:34;1.95;;;0.90;;
83690;SDS011;73671;43.220;0.064;2024-03-08T14:17:00;3.05;;;1.10;;
83690;SDS011;73671;43.220;0.064;2024-03-08T14:19:27;1.02;;;0.90;;
83690;SDS011;73671;43.220;0.064;2024-03-08T14:21:52;1.00;;;0.90;;
83690;SDS011;73671;43.220;0.064;2024-03-08T14:24:18;1.33;;;1.02;;
83690;SDS011;73671;43.220;0.064;2024-03-08T14:26:44;2.63;;;1.00;;
83690;SDS011;73671;43.220;0.064;2024-03-08T14:29:10;1.25;;;0.93;;
83690;SDS011;73671;43.220;0.064;2024-03-08T14:31:36;4.65;;;1.00;;
83690;SDS011;73671;43.220;0.064;2024-03-08T14:34:02;1.00;;;0.90;;
83690;SDS011;73671;43.220;0.064;2024-03-08T14:36:28;1.08;;;0.98;;
83690;SDS011;73671;43.220;0.064;2024-03-08T14:38:54;2.17;;;1.20;;
83690;SDS011;73671;43.220;0.064;2024-03-08T14:41:20;1.42;;;1.15;;
83690;SDS011;73671;43.220;0.064;2024-03-08T14:43:47;1.00;;;0.90;;
83690;SDS011;73671;43.220;0.064;2024-03-08T14:46:16;1.20;;;1.10;;
83690;SDS011;73671;43.220;0.064;2024-03-08T14:48:52;2.88;;;1.08;;
83690;SDS011;73671;43.220;0.064;2024-03-08T14:51:18;1.65;;;1.15;;
83690;SDS011;73671;43.220;0.064;2024-03-08T14:53:46;1.83;;;1.25;;
83690;SDS011;73671;43.220;0.064;2024-03-08T14:56:12;1.88;;;1.20;;
83690;SDS011;73671;43.220;0.064;2024-03-08T14:58:44;2.03;;;1.10;;
83690;SDS011;73671;43.220;0.064;2024-03-08T15:01:15;1.15;;;1.05;;
83690;SDS011;73671;43.220;0.064;2024-03-08T15:03:41;1.00;;;1.00;;
83690;SDS011;73671;43.220;0.064;2024-03-08T15:06:08;1.50;;;1.10;;
83690;SDS011;73671;43.220;0.064;2024-03-08T15:08:37;1.55;;;1.17;;